Time;durP1;ratioP1;P1;durP2;ratioP2;P2;SDS_P1;SDS_P2;PMS_P1;PMS_P2;Temp;Humidity;BMP_temperature;BMP_pressure;BME280_temperature;BME280_humidity;BME280_pressure;Samples;Min_cycle;Max_cycle;Signal;HPM_P1;HPM_P2
2021/11/18 00:02:35;;;;;;;9.43;6.38;;;;;;;;;;5136872;27;20055;-63
2021/11/18 00:05:21;;;;;;;9.80;6.55;;;;;;;;;;5148206;27;20029;-62
2021/11/18 00:08:07;;;;;;;9.48;6.25;;;;;;;;;;5149518;27;20371;-59
2021/11/18 00:10:53;;;;;;;9.88;6.18;;;;;;;;;;5148089;27;20030;-61
2021/11/18 00:13:45;;;;;;;9.27;5.63;;;;;;;;;;5134767;27;20027;-61
2021/11/18 00:16:30;;;;;;;10.18;6.45;;;;;;;;;;5137991;27;20027;-61
2021/11/18 00:19:15;;;;;;;12.00;7.32;;;;;;;;;;5147492;27;20025;-59
2021/11/18 00:22:01;;;;;;;9.65;6.45;;;;;;;;;;5138057;27;20031;-59
2021/11/18 00:24:46;;;;;;;10.70;6.07;;;;;;;;;;5149391;27;20019;-73
2021/11/18 00:27:31;;;;;;;8.95;6.30;;;;;;;;;;5137151;27;20319;-59
2021/11/18 00:30:17;;;;;;;9.77;6.38;;;;;;;;;;5137053;27;20069;-59
2021/11/18 00:33:03;;;;;;;9.25;6.10;;;;;;;;;;5148046;27;20054;-57
2021/11/18 00:35:48;;;;;;;10.40;6.07;;;;;;;;;;5149300;27;20030;-60
2021/11/18 00:38:34;;;;;;;11.02;6.43;;;;;;;;;;5147602;27;20019;-61
2021/11/18 00:41:20;;;;;;;10.45;6.72;;;;;;;;;;5148732;27;20520;-58
2021/11/18 00:44:06;;;;;;;8.43;5.72;;;;;;;;;;5138288;27;20081;-61
2021/11/18 00:46:51;;;;;;;11.07;6.68;;;;;;;;;;5148150;27;20384;-65
2021/11/18 00:49:36;;;;;;;10.30;6.15;;;;;;;;;;5141156;27;20403;-63
2021/11/18 00:52:22;;;;;;;10.38;6.80;;;;;;;;;;5149393;27;20107;-60
2021/11/18 00:55:07;;;;;;;9.30;6.07;;;;;;;;;;5153123;27;20389;-59
2021/11/18 00:57:53;;;;;;;11.15;6.70;;;;;;;;;;5151581;27;20027;-62
2021/11/18 01:00:40;;;;;;;11.07;6.53;;;;;;;;;;5152348;27;20066;-61
2021/11/18 01:03:25;;;;;;;9.57;6.38;;;;;;;;;;5151173;27;20516;-61
2021/11/18 01:06:11;;;;;;;10.38;6.60;;;;;;;;;;5152836;27;20030;-64
2021/11/18 01:08:56;;;;;;;8.27;5.80;;;;;;;;;;5151206;27;20031;-62
2021/11/18 01:11:41;;;;;;;9.98;5.80;;;;;;;;;;5152668;27;20384;-60
2021/11/18 01:14:27;;;;;;;9.77;5.75;;;;;;;;;;5146508;27;20029;-61
2021/11/18 01:17:12;;;;;;;10.90;6.35;;;;;;;;;;5152698;27;20041;-59
2021/11/18 01:19:57;;;;;;;8.98;6.30;;;;;;;;;;5143162;27;20042;-65
2021/11/18 01:22:43;;;;;;;9.38;6.25;;;;;;;;;;5147752;27;20018;-60
2021/11/18 01:25:29;;;;;;;12.55;6.68;;;;;;;;;;5150858;27;20023;-60
2021/11/18 01:28:15;;;;;;;8.88;5.65;;;;;;;;;;5152253;27;20030;-58
2021/11/18 01:31:00;;;;;;;9.98;6.68;;;;;;;;;;5145938;27;20056;-58
2021/11/18 01:33:46;;;;;;;8.65;5.50;;;;;;;;;;5138543;27;20091;-61
2021/11/18 01:36:31;;;;;;;9.93;5.70;;;;;;;;;;5152022;27;20029;-59
2021/11/18 01:39:16;;;;;;;11.70;7.30;;;;;;;;;;5149487;27;20362;-63
2021/11/18 01:42:02;;;;;;;10.55;6.55;;;;;;;;;;5152231;27;20034;-62
2021/11/18 01:44:49;;;;;;;13.45;6.82;;;;;;;;;;5150318;27;20061;-63
2021/11/18 01:47:34;;;;;;;8.65;5.85;;;;;;;;;;5152210;27;20026;-61
2021/11/18 01:50:23;;;;;;;7.88;5.43;;;;;;;;;;5132244;27;20070;-64
2021/11/18 01:53:12;;;;;;;11.02;6.22;;;;;;;;;;5152147;27;20054;-62
2021/11/18 01:55:57;;;;;;;10.13;5.95;;;;;;;;;;5150978;27;20026;-62
2021/11/18 01:58:44;;;;;;;10.30;6.90;;;;;;;;;;5136732;27;20118;-60
2021/11/18 02:01:30;;;;;;;9.73;6.75;;;;;;;;;;5146160;27;20516;-67
2021/11/18 02:04:17;;;;;;;10.88;5.55;;;;;;;;;;5151046;27;20354;-64
2021/11/18 02:07:07;;;;;;;11.60;6.78;;;;;;;;;;5150237;27;20114;-66
2021/11/18 02:09:52;;;;;;;9.60;6.50;;;;;;;;;;5146824;27;20047;-63
2021/11/18 02:12:37;;;;;;;11.13;6.60;;;;;;;;;;5137206;27;20110;-61
2021/11/18 02:15:34;;;;;;;9.75;6.63;;;;;;;;;;5150014;27;20027;-61
2021/11/18 02:18:25;;;;;;;10.05;6.65;;;;;;;;;;5150436;27;20348;-60
2021/11/18 02:21:11;;;;;;;9.93;6.43;;;;;;;;;;5129205;27;20034;-61
2021/11/18 02:23:59;;;;;;;9.60;6.22;;;;;;;;;;5142654;27;20037;-64
2021/11/18 02:26:44;;;;;;;11.35;6.68;;;;;;;;;;5135651;27;20041;-60
2021/11/18 02:29:29;;;;;;;9.88;6.82;;;;;;;;;;5150834;27;20106;-61
2021/11/18 02:32:16;;;;;;;8.27;5.75;;;;;;;;;;5149535;27;20079;-60
2021/11/18 02:35:11;;;;;;;10.82;6.07;;;;;;;;;;5151025;27;20030;-58
2021/11/18 02:37:57;;;;;;;9.30;6.25;;;;;;;;;;5148863;27;20026;-58
2021/11/18 02:40:42;;;;;;;11.27;5.90;;;;;;;;;;5150929;27;20030;-61
2021/11/18 02:43:28;;;;;;;11.25;6.00;;;;;;;;;;5149467;27;20030;-59
2021/11/18 02:46:13;;;;;;;8.75;5.82;;;;;;;;;;5136182;27;20026;-59
2021/11/18 02:48:58;;;;;;;9.40;6.63;;;;;;;;;;5140664;27;20074;-58
2021/11/18 02:51:43;;;;;;;7.25;5.13;;;;;;;;;;5134535;27;20473;-60
2021/11/18 02:54:29;;;;;;;9.90;6.65;;;;;;;;;;5150657;27;20017;-60
2021/11/18 02:57:14;;;;;;;11.57;6.60;;;;;;;;;;5148849;27;20407;-62
2021/11/18 02:59:59;;;;;;;10.40;6.75;;;;;;;;;;5129028;27;20023;-63
2021/11/18 03:02:45;;;;;;;10.43;6.38;;;;;;;;;;5144002;27;20059;-63
2021/11/18 03:05:30;;;;;;;9.50;5.72;;;;;;;;;;5147374;27;20046;-63
2021/11/18 03:08:16;;;;;;;9.18;5.80;;;;;;;;;;5140948;27;20034;-62
2021/11/18 03:11:02;;;;;;;10.50;6.50;;;;;;;;;;5136933;27;20027;-62
2021/11/18 03:13:48;;;;;;;7.82;5.72;;;;;;;;;;5144102;27;20054;-73
2021/11/18 03:16:33;;;;;;;7.47;5.10;;;;;;;;;;5139913;27;20419;-72
2021/11/18 03:19:18;;;;;;;9.13;5.50;;;;;;;;;;5138173;27;20022;-71
2021/11/18 03:22:03;;;;;;;10.90;6.82;;;;;;;;;;5139848;27;20079;-73
2021/11/18 03:24:49;;;;;;;12.07;6.40;;;;;;;;;;5148316;27;20569;-72
2021/11/18 03:27:35;;;;;;;9.50;6.18;;;;;;;;;;5150024;27;20053;-73
2021/11/18 03:30:22;;;;;;;10.77;5.88;;;;;;;;;;5148239;27;20100;-59
2021/11/18 03:33:10;;;;;;;9.27;6.07;;;;;;;;;;5104543;22;20048;-63
2021/11/18 03:35:56;;;;;;;10.32;6.38;;;;;;;;;;5060631;28;20040;-65
2021/11/18 03:38:41;;;;;;;10.60;7.43;;;;;;;;;;5063217;28;20020;-62
2021/11/18 03:41:28;;;;;;;8.38;5.55;;;;;;;;;;5068475;28;20024;-63
2021/11/18 03:44:13;;;;;;;9.73;6.43;;;;;;;;;;5067109;28;20060;-63
2021/11/18 03:47:00;;;;;;;9.88;6.28;;;;;;;;;;5068267;28;20507;-63
2021/11/18 03:49:46;;;;;;;9.50;5.45;;;;;;;;;;5047922;28;20055;-63
2021/11/18 03:52:31;;;;;;;11.23;5.22;;;;;;;;;;5071206;28;20383;-64
2021/11/18 03:55:17;;;;;;;9.90;5.80;;;;;;;;;;5067069;28;20106;-62
2021/11/18 03:58:02;;;;;;;11.27;5.88;;;;;;;;;;5062301;28;20083;-64
2021/11/18 04:00:48;;;;;;;10.02;6.53;;;;;;;;;;5064898;28;20032;-64
2021/11/18 04:03:33;;;;;;;10.07;7.50;;;;;;;;;;5065981;28;20028;-63
2021/11/18 04:06:18;;;;;;;10.50;6.60;;;;;;;;;;5063079;28;20031;-64
2021/11/18 04:09:04;;;;;;;13.05;6.90;;;;;;;;;;5054832;28;20038;-64
2021/11/18 04:11:51;;;;;;;9.65;6.75;;;;;;;;;;5067095;28;20044;-66
2021/11/18 04:14:37;;;;;;;10.20;5.90;;;;;;;;;;5068107;28;20021;-64
2021/11/18 04:17:22;;;;;;;10.02;6.38;;;;;;;;;;5064591;28;20077;-62
2021/11/18 04:20:08;;;;;;;8.20;5.53;;;;;;;;;;5080873;28;20084;-63
2021/11/18 04:22:55;;;;;;;9.80;6.85;;;;;;;;;;5068061;28;20025;-61
2021/11/18 04:25:40;;;;;;;13.55;6.75;;;;;;;;;;5067680;28;20606;-62
2021/11/18 04:28:25;;;;;;;8.80;5.43;;;;;;;;;;5072395;28;20016;-62
2021/11/18 04:31:16;;;;;;;9.48;6.20;;;;;;;;;;5070664;28;20020;-63
2021/11/18 04:34:02;;;;;;;8.85;5.75;;;;;;;;;;5051643;28;20049;-65
2021/11/18 04:36:47;;;;;;;8.00;5.90;;;;;;;;;;5083960;28;20033;-62
2021/11/18 04:39:33;;;;;;;9.25;6.03;;;;;;;;;;5071224;28;20032;-63
2021/11/18 04:42:19;;;;;;;10.70;6.72;;;;;;;;;;5070481;28;20033;-63
2021/11/18 04:45:05;;;;;;;13.93;6.78;;;;;;;;;;5071856;28;20028;-62
2021/11/18 04:47:50;;;;;;;10.18;6.45;;;;;;;;;;5071659;28;20423;-62
2021/11/18 04:50:36;;;;;;;9.90;6.15;;;;;;;;;;5059459;28;20028;-61
2021/11/18 04:53:26;;;;;;;9.73;6.20;;;;;;;;;;5070656;28;20062;-60
2021/11/18 04:56:11;;;;;;;9.90;6.57;;;;;;;;;;5073003;28;20078;-61
2021/11/18 04:58:58;;;;;;;11.48;7.18;;;;;;;;;;5070894;28;20036;-61
2021/11/18 05:01:43;;;;;;;10.25;7.05;;;;;;;;;;5071428;28;20063;-62
2021/11/18 05:04:29;;;;;;;9.90;6.32;;;;;;;;;;5060539;28;20031;-64
2021/11/18 05:07:14;;;;;;;11.73;6.18;;;;;;;;;;5070044;28;20035;-63
2021/11/18 05:10:00;;;;;;;11.20;7.15;;;;;;;;;;5085470;28;20662;-66
2021/11/18 05:12:45;;;;;;;10.25;7.13;;;;;;;;;;5070359;28;20111;-63
2021/11/18 05:15:32;;;;;;;11.55;7.75;;;;;;;;;;5081450;28;20504;-66
2021/11/18 05:18:18;;;;;;;12.05;8.20;;;;;;;;;;5059866;28;20119;-63
2021/11/18 05:21:04;;;;;;;8.90;7.05;;;;;;;;;;5085265;28;20025;-62
2021/11/18 05:23:49;;;;;;;10.77;7.22;;;;;;;;;;5070549;28;20539;-62
2021/11/18 05:26:35;;;;;;;14.57;8.02;;;;;;;;;;5057514;28;20463;-61
2021/11/18 05:29:20;;;;;;;10.77;7.28;;;;;;;;;;5070443;28;20032;-62
2021/11/18 05:32:06;;;;;;;13.85;10.13;;;;;;;;;;5073757;28;20503;-61
2021/11/18 05:34:51;;;;;;;14.27;9.15;;;;;;;;;;5070211;28;20060;-66
2021/11/18 05:37:36;;;;;;;13.68;8.35;;;;;;;;;;5063021;28;20475;-62
2021/11/18 05:40:22;;;;;;;15.70;9.00;;;;;;;;;;5069261;28;20062;-63
2021/11/18 05:43:08;;;;;;;15.10;9.27;;;;;;;;;;5056744;28;20037;-65
2021/11/18 05:45:53;;;;;;;11.45;8.95;;;;;;;;;;5040436;28;20476;-62
2021/11/18 05:48:39;;;;;;;14.50;8.90;;;;;;;;;;5067548;28;20024;-64
2021/11/18 05:51:24;;;;;;;12.60;10.00;;;;;;;;;;5070713;28;20071;-63
2021/11/18 05:54:10;;;;;;;13.85;9.35;;;;;;;;;;5069362;28;20029;-67
2021/11/18 05:56:55;;;;;;;15.50;9.85;;;;;;;;;;5069339;28;20043;-64
2021/11/18 05:59:40;;;;;;;13.02;9.63;;;;;;;;;;5083313;28;20027;-65
2021/11/18 06:02:25;;;;;;;14.50;10.13;;;;;;;;;;5070593;28;20097;-65
2021/11/18 06:05:11;;;;;;;14.07;9.40;;;;;;;;;;5068630;28;20119;-65
2021/11/18 06:07:57;;;;;;;14.77;9.52;;;;;;;;;;5070259;28;20039;-66
2021/11/18 06:10:42;;;;;;;12.65;9.25;;;;;;;;;;5054517;28;20086;-65
2021/11/18 06:13:27;;;;;;;13.57;9.25;;;;;;;;;;5068903;28;20051;-65
2021/11/18 06:16:12;;;;;;;12.55;8.32;;;;;;;;;;5068895;28;20032;-61
2021/11/18 06:19:01;;;;;;;54.55;39.58;;;;;;;;;;5068838;28;20046;-63
2021/11/18 06:21:47;;;;;;;16.73;11.50;;;;;;;;;;5068776;28;20035;-63
2021/11/18 06:24:33;;;;;;;14.07;9.63;;;;;;;;;;5069829;28;20095;-62
2021/11/18 06:27:18;;;;;;;14.18;9.90;;;;;;;;;;5068950;28;20511;-65
2021/11/18 06:30:04;;;;;;;15.25;10.15;;;;;;;;;;5055231;28;20115;-65
2021/11/18 06:32:50;;;;;;;32.25;18.98;;;;;;;;;;5077671;28;20052;-66
2021/11/18 06:35:35;;;;;;;17.13;10.10;;;;;;;;;;5068299;28;20158;-61
2021/11/18 06:38:20;;;;;;;13.68;9.82;;;;;;;;;;5068072;28;20020;-62
2021/11/18 06:41:06;;;;;;;14.43;9.30;;;;;;;;;;5068385;28;20036;-62
2021/11/18 06:43:51;;;;;;;11.73;7.28;;;;;;;;;;5070802;28;20028;-62
2021/11/18 06:46:37;;;;;;;17.40;8.10;;;;;;;;;;5068084;28;20020;-63
2021/11/18 06:49:22;;;;;;;12.45;7.93;;;;;;;;;;5068344;28;20048;-64
2021/11/18 06:52:10;;;;;;;11.57;8.00;;;;;;;;;;5064021;28;20033;-60
2021/11/18 06:54:55;;;;;;;13.15;8.07;;;;;;;;;;5060780;28;20396;-61
2021/11/18 06:57:41;;;;;;;16.02;8.65;;;;;;;;;;5067749;28;20506;-62
2021/11/18 07:00:26;;;;;;;10.15;7.28;;;;;;;;;;5069146;28;20440;-62
2021/11/18 07:03:12;;;;;;;13.98;7.80;;;;;;;;;;5067737;28;20653;-62
2021/11/18 07:05:57;;;;;;;11.73;7.45;;;;;;;;;;5068707;28;20017;-62
2021/11/18 07:08:42;;;;;;;16.02;7.70;;;;;;;;;;5067727;28;20032;-62
2021/11/18 07:11:27;;;;;;;11.88;7.90;;;;;;;;;;5055256;28;20082;-64
2021/11/18 07:14:13;;;;;;;9.98;6.80;;;;;;;;;;5069751;28;20446;-63
2021/11/18 07:16:59;;;;;;;12.77;7.82;;;;;;;;;;5073180;28;20036;-62
2021/11/18 07:19:44;;;;;;;15.48;8.90;;;;;;;;;;5057300;28;20032;-61
2021/11/18 07:22:30;;;;;;;13.45;8.90;;;;;;;;;;5067454;28;20036;-67
2021/11/18 07:25:17;;;;;;;13.13;8.00;;;;;;;;;;5071162;28;20067;-64
2021/11/18 07:28:02;;;;;;;14.02;8.32;;;;;;;;;;5081548;28;20021;-62
2021/11/18 07:30:48;;;;;;;15.23;8.65;;;;;;;;;;5068584;28;20119;-62
2021/11/18 07:33:33;;;;;;;13.48;7.38;;;;;;;;;;5066927;28;20179;-64
2021/11/18 07:36:18;;;;;;;13.73;8.30;;;;;;;;;;5068086;28;20056;-66
2021/11/18 07:39:04;;;;;;;11.82;7.03;;;;;;;;;;5067389;28;20036;-64
2021/11/18 07:41:50;;;;;;;14.38;7.80;;;;;;;;;;5068611;28;20039;-62
2021/11/18 07:44:35;;;;;;;14.13;8.07;;;;;;;;;;5067411;28;20071;-63
2021/11/18 07:47:20;;;;;;;13.65;8.05;;;;;;;;;;5068692;28;20047;-62
2021/11/18 07:50:06;;;;;;;12.98;7.32;;;;;;;;;;5064324;28;20082;-62
2021/11/18 07:52:52;;;;;;;13.48;8.60;;;;;;;;;;5068482;28;20047;-63
2021/11/18 07:55:37;;;;;;;15.00;8.73;;;;;;;;;;5066961;28;20029;-62
2021/11/18 07:58:23;;;;;;;12.48;8.75;;;;;;;;;;5067550;28;20074;-62
2021/11/18 08:01:08;;;;;;;12.95;8.98;;;;;;;;;;5057803;28;20471;-64
2021/11/18 08:03:53;;;;;;;14.00;7.72;;;;;;;;;;5066831;28;20036;-64
2021/11/18 08:06:39;;;;;;;13.85;8.45;;;;;;;;;;5068477;28;20020;-65
2021/11/18 08:09:24;;;;;;;15.00;9.10;;;;;;;;;;5054656;28;20039;-63
2021/11/18 08:12:10;;;;;;;13.93;9.13;;;;;;;;;;5096233;28;20024;-64
2021/11/18 08:14:55;;;;;;;13.93;9.35;;;;;;;;;;5066855;28;20376;-66
2021/11/18 08:17:41;;;;;;;17.13;11.88;;;;;;;;;;5081229;28;20039;-63
2021/11/18 08:20:27;;;;;;;22.55;11.40;;;;;;;;;;5067348;28;20479;-65
2021/11/18 08:23:12;;;;;;;18.83;11.23;;;;;;;;;;5068056;28;20063;-65
2021/11/18 08:25:58;;;;;;;20.80;11.07;;;;;;;;;;5066719;28;20544;-64
2021/11/18 08:28:43;;;;;;;22.45;12.82;;;;;;;;;;5068106;28;20118;-65
2021/11/18 08:31:29;;;;;;;24.48;12.10;;;;;;;;;;5066774;28;20046;-65
2021/11/18 08:34:14;;;;;;;24.70;11.73;;;;;;;;;;5067726;28;20044;-63
2021/11/18 08:37:00;;;;;;;23.92;11.25;;;;;;;;;;5063853;28;20082;-64
2021/11/18 08:39:46;;;;;;;25.95;12.80;;;;;;;;;;5067960;28;20027;-68
2021/11/18 08:42:32;;;;;;;24.70;12.93;;;;;;;;;;5067494;28;20078;-65
2021/11/18 08:45:17;;;;;;;28.23;14.60;;;;;;;;;;5067645;28;20051;-63
2021/11/18 08:48:04;;;;;;;24.63;12.73;;;;;;;;;;5068102;28;20033;-62
2021/11/18 08:50:51;;;;;;;27.63;13.88;;;;;;;;;;5066222;28;20079;-64
2021/11/18 08:53:38;;;;;;;25.67;14.02;;;;;;;;;;5067946;28;20434;-62
2021/11/18 08:56:24;;;;;;;24.45;13.38;;;;;;;;;;5065851;28;20032;-62
2021/11/18 08:59:09;;;;;;;23.25;13.57;;;;;;;;;;5069139;28;20532;-64
2021/11/18 09:01:57;;;;;;;36.05;22.40;;;;;;;;;;5066544;28;20043;-60
2021/11/18 09:04:42;;;;;;;41.80;25.77;;;;;;;;;;5067580;28;20416;-63
2021/11/18 09:07:28;;;;;;;27.67;14.57;;;;;;;;;;5073023;28;20047;-62
2021/11/18 09:10:13;;;;;;;24.80;12.38;;;;;;;;;;5067538;28;20032;-64
2021/11/18 09:12:59;;;;;;;26.27;14.48;;;;;;;;;;5069121;28;20036;-64
2021/11/18 09:15:44;;;;;;;24.58;13.88;;;;;;;;;;5071325;28;20028;-66
2021/11/18 09:18:29;;;;;;;21.13;12.95;;;;;;;;;;5069989;28;20505;-63
2021/11/18 09:21:16;;;;;;;21.70;12.65;;;;;;;;;;5070904;28;20459;-60
2021/11/18 09:24:05;;;;;;;19.33;12.18;;;;;;;;;;5069516;28;20035;-61
2021/11/18 09:26:52;;;;;;;22.52;12.63;;;;;;;;;;5071312;28;20029;-60
2021/11/18 09:29:38;;;;;;;21.95;12.95;;;;;;;;;;5081133;28;20044;-60
2021/11/18 09:32:28;;;;;;;20.52;12.55;;;;;;;;;;5069673;28;20045;-61
2021/11/18 09:35:16;;;;;;;25.17;12.52;;;;;;;;;;5067424;28;20041;-61
2021/11/18 09:38:02;;;;;;;22.42;14.05;;;;;;;;;;5068862;28;20017;-64
2021/11/18 09:40:54;;;;;;;18.30;11.25;;;;;;;;;;5070937;28;20024;-65
2021/11/18 09:43:58;;;;;;;19.83;12.10;;;;;;;;;;5069596;28;20374;-65
2021/11/18 09:46:43;;;;;;;24.83;13.52;;;;;;;;;;5070476;28;20036;-64
2021/11/18 09:49:32;;;;;;;21.63;13.40;;;;;;;;;;5069812;28;20040;-65
2021/11/18 09:52:33;;;;;;;26.88;13.52;;;;;;;;;;5056996;28;20479;-65
2021/11/18 09:55:21;;;;;;;48.00;31.90;;;;;;;;;;5069678;28;20659;-63
2021/11/18 09:58:22;;;;;;;31.02;21.13;;;;;;;;;;5069336;28;20036;-60
2021/11/18 10:01:34;;;;;;;25.05;13.98;;;;;;;;;;5084238;28;20037;-63
2021/11/18 10:04:36;;;;;;;25.05;13.55;;;;;;;;;;5057122;28;20029;-60
2021/11/18 10:07:25;;;;;;;23.80;13.75;;;;;;;;;;5069064;28;20056;-62
2021/11/18 10:10:16;;;;;;;21.88;14.15;;;;;;;;;;5069053;28;20040;-62
2021/11/18 10:13:25;;;;;;;22.67;13.25;;;;;;;;;;5084167;28;20036;-60
2021/11/18 10:16:11;;;;;;;22.38;14.07;;;;;;;;;;5082880;28;20028;-61
2021/11/18 10:19:00;;;;;;;49.50;35.10;;;;;;;;;;5069470;28;20064;-60
2021/11/18 10:21:46;;;;;;;26.02;16.90;;;;;;;;;;5052570;28;20360;-61
2021/11/18 10:24:38;;;;;;;22.85;14.20;;;;;;;;;;5068427;28;20020;-61
2021/11/18 10:27:25;;;;;;;22.40;12.50;;;;;;;;;;5069765;28;20032;-60
2021/11/18 10:30:10;;;;;;;18.95;12.73;;;;;;;;;;5068397;28;20467;-59
2021/11/18 10:32:56;;;;;;;22.55;14.35;;;;;;;;;;5069272;28;20045;-61
2021/11/18 10:35:53;;;;;;;19.77;12.82;;;;;;;;;;5068636;28;20522;-64
2021/11/18 10:38:49;;;;;;;22.55;14.15;;;;;;;;;;5055999;28;20458;-64
2021/11/18 10:41:34;;;;;;;23.00;13.55;;;;;;;;;;5068423;28;20035;-64
2021/11/18 10:44:25;;;;;;;25.48;12.65;;;;;;;;;;5069221;28;20520;-66
2021/11/18 10:47:13;;;;;;;21.33;14.00;;;;;;;;;;5068453;28;20036;-65
2021/11/18 10:50:04;;;;;;;22.33;14.52;;;;;;;;;;5054993;28;20372;-65
2021/11/18 10:53:02;;;;;;;23.75;12.93;;;;;;;;;;5069541;28;20064;-63
2021/11/18 10:55:50;;;;;;;19.20;11.88;;;;;;;;;;5068178;28;20036;-60
2021/11/18 10:58:44;;;;;;;18.83;11.60;;;;;;;;;;5069281;28;20028;-60
2021/11/18 11:01:32;;;;;;;18.33;10.80;;;;;;;;;;5067997;28;20036;-64
2021/11/18 11:04:38;;;;;;;17.17;11.75;;;;;;;;;;5056554;28;20103;-61
2021/11/18 11:07:37;;;;;;;21.80;13.35;;;;;;;;;;5067760;28;20025;-62
2021/11/18 11:10:24;;;;;;;32.70;21.75;;;;;;;;;;5068867;28;20046;-63
2021/11/18 11:13:25;;;;;;;23.48;14.63;;;;;;;;;;5067322;28;20157;-61
2021/11/18 11:16:29;;;;;;;18.25;11.43;;;;;;;;;;5055955;28;20034;-63
2021/11/18 11:19:28;;;;;;;16.40;10.55;;;;;;;;;;5081690;28;20085;-63
2021/11/18 11:22:28;;;;;;;16.20;10.40;;;;;;;;;;5068553;28;20028;-61
2021/11/18 11:25:25;;;;;;;15.15;9.38;;;;;;;;;;5057046;28;20025;-61
2021/11/18 11:28:10;;;;;;;13.75;9.40;;;;;;;;;;5067539;28;20032;-63
2021/11/18 11:31:06;;;;;;;16.23;9.27;;;;;;;;;;5068646;28;20044;-64
2021/11/18 11:34:07;;;;;;;19.33;9.82;;;;;;;;;;5066996;28;20507;-63
2021/11/18 11:37:02;;;;;;;13.98;9.15;;;;;;;;;;5067342;28;20058;-66
2021/11/18 11:39:51;;;;;;;12.40;7.93;;;;;;;;;;5064123;28;20483;-65
2021/11/18 11:42:55;;;;;;;17.80;9.80;;;;;;;;;;5067118;28;20463;-65
2021/11/18 11:46:03;;;;;;;16.45;8.80;;;;;;;;;;5068712;28;20063;-67
2021/11/18 11:48:52;;;;;;;15.30;9.10;;;;;;;;;;5067590;28;20078;-65
2021/11/18 11:51:45;;;;;;;15.48;9.55;;;;;;;;;;5068599;28;20086;-63
2021/11/18 11:54:36;;;;;;;13.55;8.63;;;;;;;;;;5067387;28;20074;-63
2021/11/18 11:57:37;;;;;;;16.45;10.20;;;;;;;;;;5069825;28;20055;-62
2021/11/18 12:00:41;;;;;;;17.23;9.48;;;;;;;;;;5065876;28;20380;-67
2021/11/18 12:03:26;;;;;;;11.68;7.63;;;;;;;;;;5067605;28;20037;-65
2021/11/18 12:06:15;;;;;;;13.52;7.47;;;;;;;;;;5068141;28;20383;-63
2021/11/18 12:09:22;;;;;;;15.03;7.63;;;;;;;;;;5067021;28;20115;-64
2021/11/18 12:12:20;;;;;;;14.00;8.65;;;;;;;;;;5068217;28;20521;-62
2021/11/18 12:15:08;;;;;;;14.07;8.82;;;;;;;;;;5067018;28;20036;-63
2021/11/18 12:18:17;;;;;;;14.88;8.88;;;;;;;;;;5066023;28;20431;-64
2021/11/18 12:21:02;;;;;;;14.18;8.45;;;;;;;;;;5048962;28;20392;-65
2021/11/18 12:23:56;;;;;;;13.43;8.45;;;;;;;;;;5057457;28;20423;-65
2021/11/18 12:26:42;;;;;;;13.75;8.68;;;;;;;;;;5068296;28;20029;-62
2021/11/18 12:29:32;;;;;;;14.32;8.27;;;;;;;;;;5065516;28;20071;-62
2021/11/18 12:32:19;;;;;;;17.88;10.07;;;;;;;;;;5068340;28;20060;-65
2021/11/18 12:35:11;;;;;;;17.40;12.85;;;;;;;;;;5066707;28;20090;-61
2021/11/18 12:37:58;;;;;;;22.30;12.23;;;;;;;;;;5067352;28;20048;-61
2021/11/18 12:41:07;;;;;;;24.90;13.10;;;;;;;;;;5066970;28;20383;-65
2021/11/18 12:44:01;;;;;;;17.70;11.50;;;;;;;;;;5068157;28;20032;-62
2021/11/18 12:46:51;;;;;;;18.73;12.13;;;;;;;;;;5066995;28;20089;-64
2021/11/18 12:49:52;;;;;;;50.08;36.67;;;;;;;;;;5071172;28;20391;-64
2021/11/18 12:53:01;;;;;;;48.85;32.85;;;;;;;;;;5071381;28;20033;-65
2021/11/18 12:55:52;;;;;;;17.48;12.98;;;;;;;;;;5069873;28;20035;-66
2021/11/18 12:58:40;;;;;;;20.50;12.23;;;;;;;;;;5071640;28;20032;-64
2021/11/18 13:01:25;;;;;;;19.60;10.55;;;;;;;;;;5071044;28;20043;-63
2021/11/18 13:04:29;;;;;;;16.95;10.27;;;;;;;;;;5070812;28;20032;-64
2021/11/18 13:07:44;;;;;;;20.35;11.50;;;;;;;;;;5067476;28;20024;-64
2021/11/18 13:10:29;;;;;;;19.60;10.77;;;;;;;;;;5054469;28;20070;-63
2021/11/18 13:13:17;;;;;;;16.10;10.85;;;;;;;;;;5061828;28;20113;-64
2021/11/18 13:16:06;;;;;;;19.67;10.85;;;;;;;;;;5068556;28;20039;-63
2021/11/18 13:19:14;;;;;;;17.00;10.50;;;;;;;;;;5070598;28;20047;-64
2021/11/18 13:22:19;;;;;;;19.83;11.13;;;;;;;;;;5065271;28;20495;-64
2021/11/18 13:25:07;;;;;;;131.05;93.47;;;;;;;;;;5057194;28;20035;-64
2021/11/18 13:28:12;;;;;;;26.02;16.80;;;;;;;;;;5069430;28;20511;-63
2021/11/18 13:30:59;;;;;;;15.50;10.38;;;;;;;;;;5070277;28;20410;-66
2021/11/18 13:33:46;;;;;;;14.82;9.98;;;;;;;;;;5069074;28;20440;-64
2021/11/18 13:36:32;;;;;;;16.80;11.38;;;;;;;;;;5068921;28;20032;-68
2021/11/18 13:39:20;;;;;;;16.88;10.48;;;;;;;;;;5062053;28;20079;-63
2021/11/18 13:42:16;;;;;;;15.40;9.75;;;;;;;;;;5055662;28;20032;-63
2021/11/18 13:45:10;;;;;;;18.95;11.80;;;;;;;;;;5069981;28;20032;-61
2021/11/18 13:47:56;;;;;;;19.20;10.80;;;;;;;;;;5070535;28;20419;-61
2021/11/18 13:50:43;;;;;;;16.83;9.25;;;;;;;;;;5067436;28;20024;-62
2021/11/18 13:53:41;;;;;;;15.05;9.60;;;;;;;;;;5068520;28;20024;-62
2021/11/18 13:56:26;;;;;;;12.95;8.95;;;;;;;;;;5062216;28;20078;-60
2021/11/18 13:59:27;;;;;;;16.05;9.85;;;;;;;;;;5068806;28;20112;-64
2021/11/18 14:02:24;;;;;;;14.88;9.55;;;;;;;;;;5069666;28;20099;-65
2021/11/18 14:05:13;;;;;;;14.95;9.32;;;;;;;;;;5069141;28;20531;-66
2021/11/18 14:08:07;;;;;;;15.93;9.30;;;;;;;;;;5068399;28;20040;-64
2021/11/18 14:11:02;;;;;;;16.13;9.65;;;;;;;;;;5083299;28;20411;-63
2021/11/18 14:14:02;;;;;;;16.73;8.30;;;;;;;;;;5068356;28;20028;-65
2021/11/18 14:16:47;;;;;;;15.05;8.13;;;;;;;;;;5068969;28;20151;-63
2021/11/18 14:19:37;;;;;;;13.57;8.18;;;;;;;;;;5068063;28;20032;-62
2021/11/18 14:22:22;;;;;;;;;;;;;;;;;;5083902;28;20132;-63
2021/11/18 14:25:25;;;;;;;32.53;23.73;;;;;;;;;;5076954;28;19912;-64
2021/11/18 14:28:30;;;;;;;16.67;11.23;;;;;;;;;;5069574;28;20061;-64
2021/11/18 14:31:28;;;;;;;14.68;8.95;;;;;;;;;;5068971;28;20418;-65
2021/11/18 14:34:13;;;;;;;16.23;9.07;;;;;;;;;;5068021;28;20044;-65
2021/11/18 14:37:18;;;;;;;12.07;7.28;;;;;;;;;;5068951;28;20032;-67
2021/11/18 14:40:09;;;;;;;15.38;7.63;;;;;;;;;;5066595;28;20056;-64
2021/11/18 14:43:12;;;;;;;10.80;7.38;;;;;;;;;;5049155;28;20071;-63
2021/11/18 14:46:09;;;;;;;13.23;6.97;;;;;;;;;;5079263;28;20042;-63
2021/11/18 14:48:59;;;;;;;12.48;6.85;;;;;;;;;;5068917;28;20473;-63
2021/11/18 14:51:44;;;;;;;;;;;;;;;;;;5067618;28;20397;-65
2021/11/18 14:54:31;;;;;;;10.32;6.35;;;;;;;;;;5083012;28;19912;-63
2021/11/18 14:57:19;;;;;;;12.45;6.43;;;;;;;;;;5068126;28;20032;-66
2021/11/18 15:00:05;;;;;;;10.68;5.95;;;;;;;;;;5067502;28;20036;-64
2021/11/18 15:02:51;;;;;;;9.05;6.45;;;;;;;;;;5069050;28;20028;-65
2021/11/18 15:05:37;;;;;;;10.75;6.82;;;;;;;;;;5066903;28;20028;-65
2021/11/18 15:08:24;;;;;;;12.52;6.80;;;;;;;;;;5068622;28;20033;-63
2021/11/18 15:11:10;;;;;;;11.00;7.28;;;;;;;;;;5066882;28;20553;-64
2021/11/18 15:13:56;;;;;;;10.90;6.68;;;;;;;;;;5082631;28;20511;-62
2021/11/18 15:16:42;;;;;;;12.32;7.22;;;;;;;;;;5066987;28;20040;-65
2021/11/18 15:19:27;;;;;;;11.10;6.10;;;;;;;;;;5069018;28;20038;-61
2021/11/18 15:22:13;;;;;;;9.63;6.05;;;;;;;;;;5067977;28;20115;-61
2021/11/18 15:25:00;;;;;;;11.88;6.30;;;;;;;;;;5068683;28;20039;-64
2021/11/18 15:27:46;;;;;;;10.10;5.70;;;;;;;;;;5067334;28;20467;-62
2021/11/18 15:30:34;;;;;;;10.02;6.30;;;;;;;;;;5068474;28;20028;-60
2021/11/18 15:33:21;;;;;;;10.77;6.28;;;;;;;;;;5067823;28;20052;-62
2021/11/18 15:36:07;;;;;;;9.80;5.63;;;;;;;;;;5067907;28;20020;-62
2021/11/18 15:38:53;;;;;;;66.90;46.45;;;;;;;;;;5066506;28;20457;-62
2021/11/18 15:41:40;;;;;;;20.10;13.82;;;;;;;;;;5066920;28;20383;-62
2021/11/18 15:44:26;;;;;;;12.50;7.72;;;;;;;;;;5068797;28;20432;-61
2021/11/18 15:47:11;;;;;;;10.27;6.20;;;;;;;;;;5053460;28;20418;-69
2021/11/18 15:49:57;;;;;;;9.32;5.55;;;;;;;;;;5081608;28;20028;-64
2021/11/18 15:52:42;;;;;;;12.18;5.60;;;;;;;;;;5053290;28;20028;-64
2021/11/18 15:55:28;;;;;;;10.52;5.70;;;;;;;;;;5066975;28;20035;-63
2021/11/18 15:58:14;;;;;;;10.40;6.60;;;;;;;;;;5066736;28;20078;-63
2021/11/18 16:01:00;;;;;;;12.48;6.90;;;;;;;;;;5070098;28;20174;-65
2021/11/18 16:03:46;;;;;;;11.65;6.32;;;;;;;;;;5066510;28;20025;-62
2021/11/18 16:06:33;;;;;;;9.82;5.35;;;;;;;;;;5067632;28;20028;-62
2021/11/18 16:09:19;;;;;;;11.07;6.43;;;;;;;;;;5046944;28;20486;-62
2021/11/18 16:12:07;;;;;;;10.77;6.72;;;;;;;;;;5063175;28;20033;-64
2021/11/18 16:14:56;;;;;;;11.38;6.43;;;;;;;;;;5060777;28;20025;-63
2021/11/18 16:17:42;;;;;;;13.38;6.47;;;;;;;;;;5081610;28;20017;-63
2021/11/18 16:20:29;;;;;;;10.52;5.85;;;;;;;;;;5066800;28;20040;-64
2021/11/18 16:23:15;;;;;;;10.93;5.50;;;;;;;;;;5068878;28;20505;-64
2021/11/18 16:26:01;;;;;;;10.75;5.55;;;;;;;;;;5085685;28;20090;-66
2021/11/18 16:28:48;;;;;;;9.65;6.15;;;;;;;;;;5056577;28;20032;-63
2021/11/18 16:31:34;;;;;;;11.57;6.82;;;;;;;;;;5085599;28;20025;-63
2021/11/18 16:34:20;;;;;;;10.38;5.43;;;;;;;;;;5070014;28;20055;-65